Time;durP1;ratioP1;P1;durP2;ratioP2;P2;SDS_P1;SDS_P2;PMS_P1;PMS_P2;Temp;Humidity;BMP_temperature;BMP_pressure;BME280_temperature;BME280_humidity;BME280_pressure;Samples;Min_cycle;Max_cycle;Signal;HPM_P1;HPM_P2
2021/10/18 00:01:15;;;;;;;38.95;34.63;;;8.60;93.90;;;;;;5029129;28;20213;-70
2021/10/18 00:03:42;;;;;;;37.80;34.03;;;8.60;94.10;;;;;;5026492;28;20320;-70
2021/10/18 00:06:09;;;;;;;36.47;32.65;;;8.60;94.20;;;;;;5027687;28;20296;-70
2021/10/18 00:08:37;;;;;;;35.95;32.58;;;8.60;94.10;;;;;;5026584;28;20203;-70
2021/10/18 00:11:05;;;;;;;36.08;32.55;;;8.60;93.90;;;;;;5026557;28;20209;-70
2021/10/18 00:13:32;;;;;;;35.08;31.67;;;8.60;93.80;;;;;;5027604;28;20567;-70
2021/10/18 00:15:59;;;;;;;36.97;33.22;;;8.60;94.10;;;;;;5027674;28;20193;-70
2021/10/18 00:18:26;;;;;;;36.78;32.97;;;8.60;94.00;;;;;;5027787;28;20201;-70
2021/10/18 00:20:53;;;;;;;38.53;34.88;;;8.60;94.20;;;;;;5027401;28;20213;-70
2021/10/18 00:23:20;;;;;;;37.58;33.63;;;8.60;94.30;;;;;;5025906;28;20208;-70
2021/10/18 00:25:48;;;;;;;37.38;33.42;;;8.60;94.30;;;;;;5026810;28;20215;-70
2021/10/18 00:28:15;;;;;;;35.65;32.17;;;8.70;94.40;;;;;;5029484;28;20656;-70
2021/10/18 00:30:42;;;;;;;36.35;32.95;;;8.70;94.00;;;;;;5035327;28;20189;-70
2021/10/18 00:33:09;;;;;;;37.28;33.63;;;8.70;93.90;;;;;;5029202;28;20288;-70
2021/10/18 00:35:36;;;;;;;36.03;32.33;;;8.70;93.90;;;;;;5021137;28;20324;-70
2021/10/18 00:38:03;;;;;;;34.83;31.55;;;8.70;93.80;;;;;;5027712;28;20204;-70
2021/10/18 00:40:30;;;;;;;35.75;32.42;;;8.60;93.90;;;;;;5017265;28;20195;-70
2021/10/18 00:42:58;;;;;;;35.25;32.05;;;8.60;93.90;;;;;;5026527;28;20205;-70
2021/10/18 00:45:25;;;;;;;35.22;32.33;;;8.60;93.70;;;;;;5023840;28;20764;-70
2021/10/18 00:47:52;;;;;;;37.22;33.83;;;8.60;93.70;;;;;;5027228;28;20200;-70
2021/10/18 00:50:19;;;;;;;36.83;33.22;;;8.60;93.60;;;;;;5025596;28;20217;-70
2021/10/18 00:52:46;;;;;;;35.78;32.58;;;8.50;93.90;;;;;;5025752;28;20303;-70
2021/10/18 00:55:15;;;;;;;36.25;32.85;;;8.50;94.10;;;;;;5020483;28;20201;-70
2021/10/18 00:57:42;;;;;;;39.00;35.13;;;8.60;93.80;;;;;;5029281;28;20223;-70
2021/10/18 01:00:11;;;;;;;34.05;31.02;;;8.70;94.00;;;;;;5027115;28;20811;-70
2021/10/18 01:02:38;;;;;;;37.58;34.00;;;8.70;94.50;;;;;;5027014;28;20220;-70
2021/10/18 01:05:06;;;;;;;37.90;34.00;;;8.60;93.90;;;;;;5024274;28;20220;-70
2021/10/18 01:07:34;;;;;;;37.05;33.40;;;8.60;94.10;;;;;;5023157;28;20205;-70
2021/10/18 01:10:01;;;;;;;38.83;34.97;;;8.60;94.20;;;;;;5020910;28;20231;-70
2021/10/18 01:12:28;;;;;;;37.40;33.60;;;8.60;94.20;;;;;;5025935;28;20579;-70
2021/10/18 01:14:55;;;;;;;36.85;33.17;;;8.70;94.60;;;;;;5021280;28;20776;-70
2021/10/18 01:17:23;;;;;;;37.97;34.30;;;8.70;95.80;;;;;;5026583;28;20296;-69
2021/10/18 01:19:50;;;;;;;38.15;34.53;;;8.70;95.30;;;;;;5027180;28;20197;-69
2021/10/18 01:22:19;;;;;;;39.53;35.55;;;8.70;95.30;;;;;;5027242;28;20213;-70
2021/10/18 01:24:46;;;;;;;39.50;35.20;;;8.70;95.00;;;;;;5026168;28;20691;-70
2021/10/18 01:27:14;;;;;;;38.37;34.37;;;8.70;94.70;;;;;;5024624;28;20219;-70
2021/10/18 01:29:42;;;;;;;36.78;33.28;;;8.80;94.70;;;;;;5026564;28;20460;-70
2021/10/18 01:32:09;;;;;;;39.80;35.72;;;8.80;94.80;;;;;;5025899;28;20217;-70
2021/10/18 01:34:36;;;;;;;38.08;34.47;;;8.80;94.60;;;;;;5028172;28;20198;-70
2021/10/18 01:37:05;;;;;;;39.03;35.33;;;8.80;94.50;;;;;;5025735;28;20255;-70
2021/10/18 01:39:33;;;;;;;39.45;35.58;;;8.80;94.30;;;;;;5035529;28;20532;-70
2021/10/18 01:42:00;;;;;;;40.25;36.42;;;8.70;94.00;;;;;;5026336;28;20217;-70
2021/10/18 01:44:27;;;;;;;38.35;34.25;;;8.70;94.20;;;;;;5018485;28;20218;-70
2021/10/18 01:46:54;;;;;;;39.90;35.67;;;8.70;94.30;;;;;;5025186;28;20406;-70
2021/10/18 01:49:21;;;;;;;40.78;36.50;;;8.70;94.50;;;;;;5024479;28;20778;-70
2021/10/18 01:52:06;;;;;;;39.92;36.00;;;8.70;94.40;;;;;;5022324;28;20221;-70
2021/10/18 01:54:34;;;;;;;39.55;35.65;;;8.70;94.30;;;;;;5022481;28;20186;-69
2021/10/18 01:57:01;;;;;;;39.95;36.08;;;8.70;94.30;;;;;;5024495;28;20652;-70
2021/10/18 01:59:29;;;;;;;42.50;38.15;;;8.70;94.30;;;;;;5026935;28;20683;-70
2021/10/18 02:01:55;;;;;;;40.28;36.03;;;8.70;94.50;;;;;;5024137;28;20313;-70
2021/10/18 02:04:22;;;;;;;40.50;36.35;;;8.80;94.40;;;;;;5025988;28;20213;-69
2021/10/18 02:06:49;;;;;;;40.80;36.90;;;8.70;93.90;;;;;;5025682;28;20205;-70
2021/10/18 02:09:16;;;;;;;42.53;38.42;;;8.70;94.10;;;;;;5025795;28;20208;-69
2021/10/18 02:11:44;;;;;;;41.40;37.05;;;8.70;94.00;;;;;;5026023;28;20217;-70
2021/10/18 02:14:11;;;;;;;41.13;36.83;;;8.70;94.40;;;;;;5025778;28;20284;-70
2021/10/18 02:16:38;;;;;;;42.42;37.92;;;8.70;94.50;;;;;;5019358;28;20292;-70
2021/10/18 02:19:05;;;;;;;42.72;38.35;;;8.70;94.60;;;;;;5026656;28;20225;-70
2021/10/18 02:21:32;;;;;;;42.03;37.88;;;8.70;94.50;;;;;;5020937;28;20214;-70
2021/10/18 02:23:59;;;;;;;41.45;37.15;;;8.70;94.40;;;;;;5026105;28;20201;-70
2021/10/18 02:26:26;;;;;;;42.80;38.20;;;8.80;94.40;;;;;;5024318;28;20292;-70
2021/10/18 02:28:54;;;;;;;42.58;38.25;;;8.80;94.40;;;;;;5020773;28;20205;-70
2021/10/18 02:31:21;;;;;;;42.38;37.88;;;8.80;94.60;;;;;;5020195;28;20308;-70
2021/10/18 02:33:48;;;;;;;42.70;38.25;;;8.90;94.40;;;;;;5024479;28;20198;-70
2021/10/18 02:36:14;;;;;;;41.13;36.83;;;8.90;94.20;;;;;;5022754;28;20208;-70
2021/10/18 02:38:41;;;;;;;40.35;36.13;;;8.90;93.80;;;;;;5027552;28;20195;-70
2021/10/18 02:41:09;;;;;;;39.88;35.80;;;8.90;93.90;;;;;;5026021;28;20217;-70
2021/10/18 02:43:36;;;;;;;41.03;36.58;;;8.90;93.90;;;;;;5020876;28;20200;-70
2021/10/18 02:46:04;;;;;;;42.20;37.67;;;8.90;94.30;;;;;;5029415;28;20682;-70
2021/10/18 02:48:31;;;;;;;41.53;37.20;;;8.90;94.10;;;;;;5029307;28;20205;-70
2021/10/18 02:50:59;;;;;;;42.10;36.63;;;8.90;93.90;;;;;;5027754;28;20483;-70
2021/10/18 02:53:25;;;;;;;40.97;36.85;;;9.00;93.80;;;;;;5026496;28;20467;-70
2021/10/18 02:55:52;;;;;;;42.00;37.30;;;8.90;93.60;;;;;;5029309;28;20631;-70
2021/10/18 02:58:19;;;;;;;42.58;38.17;;;8.90;93.80;;;;;;5029838;28;20296;-70
2021/10/18 03:00:46;;;;;;;47.83;39.97;;;9.00;93.50;;;;;;5029353;28;20217;-70
2021/10/18 03:03:15;;;;;;;45.20;39.83;;;9.00;93.50;;;;;;5028421;28;20209;-70
2021/10/18 03:05:41;;;;;;;42.47;38.00;;;9.00;93.60;;;;;;5027186;28;20220;-69
2021/10/18 03:08:08;;;;;;;47.97;39.53;;;8.90;93.80;;;;;;5023998;28;20255;-70
2021/10/18 03:10:39;;;;;;;47.00;42.20;;;8.90;93.90;;;;;;5029302;28;20216;-70
2021/10/18 03:13:07;;;;;;;44.08;39.35;;;8.90;94.30;;;;;;5029858;28;20451;-70
2021/10/18 03:15:34;;;;;;;46.22;41.60;;;8.90;94.10;;;;;;5029354;28;20201;-70
2021/10/18 03:18:01;;;;;;;45.17;39.57;;;8.90;94.00;;;;;;5030727;28;20208;-70
2021/10/18 03:20:29;;;;;;;45.65;40.75;;;9.00;93.80;;;;;;5025412;28;20467;-70
2021/10/18 03:22:56;;;;;;;46.50;41.28;;;9.00;93.80;;;;;;5028271;28;20197;-70
2021/10/18 03:25:23;;;;;;;43.58;39.15;;;9.00;93.70;;;;;;5028328;28;20213;-69
2021/10/18 03:27:50;;;;;;;45.35;41.00;;;9.00;93.40;;;;;;5026149;28;20204;-70
2021/10/18 03:30:17;;;;;;;48.75;42.15;;;9.00;93.50;;;;;;5028115;28;20240;-70
2021/10/18 03:32:44;;;;;;;44.03;39.45;;;9.10;93.40;;;;;;5018742;28;20502;-70
2021/10/18 03:35:11;;;;;;;43.00;38.72;;;9.00;93.40;;;;;;5029344;28;20208;-70
2021/10/18 03:37:39;;;;;;;42.67;38.33;;;9.00;93.50;;;;;;5025734;28;20277;-70
2021/10/18 03:40:10;;;;;;;42.28;37.88;;;9.00;93.40;;;;;;5029690;28;20671;-70
2021/10/18 03:42:40;;;;;;;43.47;39.15;;;9.00;93.50;;;;;;5029500;28;20221;-70
2021/10/18 03:45:08;;;;;;;44.83;40.05;;;9.10;93.10;;;;;;5019785;28;20312;-70
2021/10/18 03:47:35;;;;;;;43.83;39.17;;;9.10;93.00;;;;;;5030647;28;20200;-69
2021/10/18 03:50:02;;;;;;;42.45;37.95;;;9.10;93.10;;;;;;5029341;28;21049;-69
2021/10/18 03:52:30;;;;;;;43.75;39.15;;;9.10;92.80;;;;;;5016234;28;20221;-69
2021/10/18 03:54:58;;;;;;;42.50;38.20;;;9.00;92.90;;;;;;5026998;28;20206;-68
2021/10/18 03:57:25;;;;;;;87.07;40.78;;;9.10;92.60;;;;;;5023102;28;20456;-69
2021/10/18 03:59:52;;;;;;;41.73;37.53;;;9.10;92.60;;;;;;5029026;28;20197;-69
2021/10/18 04:02:19;;;;;;;43.92;39.30;;;9.10;93.20;;;;;;5028262;28;20575;-69
2021/10/18 04:04:46;;;;;;;43.17;38.80;;;9.10;93.20;;;;;;5028164;28;20217;-69
2021/10/18 04:07:13;;;;;;;43.37;38.80;;;9.10;93.10;;;;;;5023515;28;20555;-69
2021/10/18 04:09:39;;;;;;;46.17;41.17;;;9.00;93.00;;;;;;5028633;28;20460;-68
2021/10/18 04:12:08;;;;;;;42.78;38.15;;;9.00;93.30;;;;;;5028015;28;20213;-69
2021/10/18 04:14:35;;;;;;;42.25;37.55;;;9.00;94.50;;;;;;5028981;28;20202;-69
2021/10/18 04:17:02;;;;;;;45.63;40.90;;;9.00;94.00;;;;;;5027331;28;20304;-69
2021/10/18 04:19:28;;;;;;;44.58;39.88;;;9.00;94.00;;;;;;5029908;28;20492;-69
2021/10/18 04:21:55;;;;;;;48.07;43.30;;;9.00;93.70;;;;;;5028230;28;20220;-69
2021/10/18 04:24:22;;;;;;;44.70;39.35;;;9.00;93.60;;;;;;5028496;28;20969;-69
2021/10/18 04:26:49;;;;;;;43.88;39.17;;;9.00;94.00;;;;;;5027299;28;20678;-69
2021/10/18 04:29:18;;;;;;;45.33;40.53;;;9.00;94.60;;;;;;5029663;28;20205;-69
2021/10/18 04:31:44;;;;;;;43.57;38.87;;;9.10;94.20;;;;;;5027993;28;20487;-69
2021/10/18 04:34:11;;;;;;;48.43;43.27;;;9.10;93.70;;;;;;5028922;28;20488;-69
2021/10/18 04:36:38;;;;;;;42.95;38.30;;;9.10;93.50;;;;;;5026489;28;20460;-69
2021/10/18 04:39:05;;;;;;;47.43;42.30;;;9.00;93.60;;;;;;5029627;28;20290;-69
2021/10/18 04:41:32;;;;;;;45.30;40.50;;;9.10;93.50;;;;;;5028311;28;20479;-69
2021/10/18 04:43:59;;;;;;;47.30;42.93;;;9.10;93.50;;;;;;5023979;28;20451;-69
2021/10/18 04:46:27;;;;;;;44.43;39.73;;;9.10;93.70;;;;;;5027773;28;20480;-69
2021/10/18 04:48:54;;;;;;;47.15;42.25;;;9.10;93.60;;;;;;5029357;28;20543;-69
2021/10/18 04:51:21;;;;;;;49.00;43.80;;;9.20;93.20;;;;;;5029339;28;20231;-69
2021/10/18 04:53:48;;;;;;;49.15;42.08;;;9.20;93.20;;;;;;5029017;28;20287;-69
2021/10/18 04:56:15;;;;;;;44.70;40.00;;;9.20;93.30;;;;;;5027839;28;20532;-69
2021/10/18 04:58:42;;;;;;;50.70;45.17;;;9.30;93.00;;;;;;5027373;28;20488;-69
2021/10/18 05:01:09;;;;;;;46.10;41.00;;;9.50;92.80;;;;;;5027329;28;20213;-69
2021/10/18 05:03:37;;;;;;;46.77;41.90;;;9.40;92.30;;;;;;5023873;28;20190;-69
2021/10/18 05:06:04;;;;;;;50.28;44.85;;;9.30;92.50;;;;;;5023532;28;20450;-69
2021/10/18 05:08:31;;;;;;;44.97;40.10;;;9.50;92.40;;;;;;5028104;28;20207;-70
2021/10/18 05:10:58;;;;;;;49.33;44.07;;;9.50;91.70;;;;;;5024046;28;20488;-69
2021/10/18 05:13:25;;;;;;;45.53;40.87;;;9.40;92.70;;;;;;5025623;28;20529;-69
2021/10/18 05:15:53;;;;;;;45.33;40.60;;;9.40;92.80;;;;;;5026647;28;20559;-69
2021/10/18 05:18:20;;;;;;;45.80;40.40;;;9.40;92.70;;;;;;5027599;28;20467;-69
2021/10/18 05:20:50;;;;;;;45.33;40.50;;;9.30;92.50;;;;;;5026868;28;20908;-69
2021/10/18 05:23:17;;;;;;;46.30;41.47;;;9.20;92.40;;;;;;5025305;28;20467;-69
2021/10/18 05:25:44;;;;;;;44.40;39.80;;;9.20;92.70;;;;;;5026269;28;20480;-69
2021/10/18 05:28:11;;;;;;;45.07;40.23;;;9.30;92.50;;;;;;5026957;28;20464;-69
2021/10/18 05:30:38;;;;;;;46.92;42.20;;;9.30;92.40;;;;;;5023740;28;20463;-70
2021/10/18 05:33:06;;;;;;;45.70;41.20;;;9.20;92.50;;;;;;5022641;28;20296;-69
2021/10/18 05:35:33;;;;;;;46.10;41.13;;;9.20;92.60;;;;;;5025594;28;21229;-70
2021/10/18 05:38:02;;;;;;;43.63;39.13;;;9.20;92.70;;;;;;5027700;28;20505;-70
2021/10/18 05:40:29;;;;;;;45.83;40.40;;;9.30;92.90;;;;;;5027369;28;20463;-70
2021/10/18 05:42:56;;;;;;;46.75;41.60;;;9.30;92.90;;;;;;5025930;28;21032;-71
2021/10/18 05:45:23;;;;;;;47.07;42.00;;;9.40;93.20;;;;;;5018896;28;20895;-70
2021/10/18 05:47:55;;;;;;;47.50;42.40;;;9.40;92.70;;;;;;5027682;28;20452;-69
2021/10/18 05:50:23;;;;;;;49.60;43.47;;;9.40;92.90;;;;;;5026057;28;20466;-69
2021/10/18 05:52:50;;;;;;;50.87;45.27;;;9.40;92.70;;;;;;5023212;28;20570;-69
2021/10/18 05:55:19;;;;;;;46.73;41.90;;;9.40;93.00;;;;;;5027918;28;20447;-69
2021/10/18 05:57:51;;;;;;;49.07;43.60;;;9.40;92.70;;;;;;5021353;28;20470;-69
2021/10/18 06:00:19;;;;;;;47.27;42.40;;;9.40;92.60;;;;;;5021587;28;20467;-69
2021/10/18 06:02:47;;;;;;;48.50;43.43;;;9.50;92.60;;;;;;5022687;28;20902;-69
2021/10/18 06:05:14;;;;;;;49.50;44.47;;;9.50;93.50;;;;;;5019910;28;20482;-69
2021/10/18 06:07:41;;;;;;;49.67;44.47;;;9.50;93.20;;;;;;5027505;28;20464;-69
2021/10/18 06:10:09;;;;;;;46.53;41.70;;;9.50;92.90;;;;;;5025629;28;20466;-69
2021/10/18 06:12:38;;;;;;;45.87;41.50;;;9.50;92.80;;;;;;5024374;28;20989;-69
2021/10/18 06:15:06;;;;;;;49.90;44.43;;;9.60;92.50;;;;;;5027211;28;20470;-69
2021/10/18 06:17:35;;;;;;;50.13;44.70;;;9.70;92.30;;;;;;5023419;28;20463;-69
2021/10/18 06:20:02;;;;;;;51.80;46.33;;;9.70;92.60;;;;;;5024623;28;20965;-69
2021/10/18 06:22:29;;;;;;;49.20;43.90;;;9.70;92.40;;;;;;5024209;28;20472;-69
2021/10/18 06:24:56;;;;;;;50.13;43.20;;;9.70;92.30;;;;;;5027057;28;20557;-69
2021/10/18 06:27:23;;;;;;;47.57;42.77;;;9.80;92.30;;;;;;5022752;28;20570;-69
2021/10/18 06:29:52;;;;;;;48.37;43.47;;;9.80;92.60;;;;;;5027284;28;20464;-69
2021/10/18 06:32:19;;;;;;;45.77;40.77;;;9.80;92.30;;;;;;5026705;28;20479;-69
2021/10/18 06:34:46;;;;;;;44.43;40.07;;;9.90;92.00;;;;;;5025246;28;20642;-69
2021/10/18 06:37:13;;;;;;;48.47;41.60;;;9.90;91.80;;;;;;5022066;28;20460;-69
2021/10/18 06:39:43;;;;;;;47.43;42.53;;;9.90;91.50;;;;;;5026239;28;20699;-69
2021/10/18 06:42:10;;;;;;;44.13;39.70;;;10.00;91.40;;;;;;5022843;28;20491;-69
2021/10/18 06:44:37;;;;;;;47.90;43.30;;;10.00;91.40;;;;;;5024342;28;20818;-69
2021/10/18 06:47:05;;;;;;;50.63;45.22;;;10.10;91.10;;;;;;5022907;28;20462;-69
2021/10/18 06:49:32;;;;;;;48.53;43.37;;;10.30;91.30;;;;;;5026197;28;20201;-68
2021/10/18 06:52:00;;;;;;;46.83;42.00;;;10.40;90.70;;;;;;5018255;28;20480;-69
2021/10/18 06:54:35;;;;;;;46.67;42.17;;;10.30;90.80;;;;;;5016832;28;20495;-69
2021/10/18 06:57:02;;;;;;;44.70;40.00;;;10.40;90.60;;;;;;5020714;28;20814;-69
2021/10/18 06:59:31;;;;;;;48.40;43.10;;;10.40;90.60;;;;;;5026479;28;20460;-69
2021/10/18 07:01:58;;;;;;;46.37;41.60;;;10.40;90.60;;;;;;5018632;28;21012;-69
2021/10/18 07:04:29;;;;;;;44.97;40.03;;;10.40;90.80;;;;;;5025513;28;20466;-69
2021/10/18 07:06:57;;;;;;;45.67;41.03;;;10.60;89.80;;;;;;5020269;28;21105;-69
2021/10/18 07:09:27;;;;;;;48.10;40.57;;;10.60;89.50;;;;;;5026562;28;20452;-69
2021/10/18 07:11:54;;;;;;;45.13;40.57;;;10.50;89.50;;;;;;5025140;28;20479;-69
2021/10/18 07:14:21;;;;;;;46.17;41.67;;;10.60;89.50;;;;;;5012969;28;20456;-69
2021/10/18 07:16:48;;;;;;;43.50;39.20;;;10.70;89.00;;;;;;5022106;28;20448;-69
2021/10/18 07:19:15;;;;;;;43.47;39.27;;;10.70;88.60;;;;;;5019096;28;20471;-69
2021/10/18 07:21:45;;;;;;;41.17;37.53;;;10.80;88.20;;;;;;5024350;28;20468;-69
2021/10/18 07:24:12;;;;;;;41.77;37.70;;;10.80;88.00;;;;;;5027310;28;20463;-69
2021/10/18 07:26:39;;;;;;;41.93;38.03;;;10.90;88.10;;;;;;5028663;28;22240;-69
2021/10/18 07:29:06;;;;;;;40.47;36.77;;;10.80;88.40;;;;;;5026199;28;20958;-70
2021/10/18 07:31:33;;;;;;;42.53;38.80;;;10.90;88.40;;;;;;5026413;28;20476;-69
2021/10/18 07:34:04;;;;;;;40.47;36.87;;;10.90;88.30;;;;;;5024764;28;20463;-69
2021/10/18 07:36:33;;;;;;;41.90;38.13;;;11.00;87.40;;;;;;5027242;28;20567;-69
2021/10/18 07:39:05;;;;;;;40.57;37.07;;;11.00;86.20;;;;;;5028923;28;21016;-69
2021/10/18 07:41:33;;;;;;;42.07;38.27;;;11.10;85.70;;;;;;5023361;28;21009;-69
2021/10/18 07:44:00;;;;;;;41.03;37.33;;;11.10;85.20;;;;;;5024654;28;20552;-69
2021/10/18 07:46:27;;;;;;;41.40;37.60;;;11.00;85.60;;;;;;5026348;28;20559;-69
2021/10/18 07:48:54;;;;;;;40.43;36.93;;;11.10;85.60;;;;;;5028822;28;20486;-69
2021/10/18 07:51:21;;;;;;;40.73;36.90;;;11.10;85.90;;;;;;5023946;28;20578;-69
2021/10/18 07:53:48;;;;;;;43.10;39.30;;;11.20;86.00;;;;;;5028464;28;20529;-69
2021/10/18 07:56:16;;;;;;;41.07;37.40;;;11.20;86.30;;;;;;5025028;28;20463;-70
2021/10/18 07:58:43;;;;;;;42.50;38.70;;;11.20;86.30;;;;;;5028809;28;20821;-69
2021/10/18 08:01:10;;;;;;;42.70;38.80;;;11.30;86.30;;;;;;5026118;28;20487;-69
2021/10/18 08:03:37;;;;;;;41.87;37.97;;;11.40;85.80;;;;;;5028361;28;21336;-69
2021/10/18 08:06:04;;;;;;;43.23;39.20;;;11.50;85.00;;;;;;5022545;28;20484;-69
2021/10/18 08:08:33;;;;;;;40.77;37.17;;;11.50;84.30;;;;;;5024471;28;20470;-69
2021/10/18 08:11:00;;;;;;;42.00;37.87;;;11.50;83.70;;;;;;5022922;28;21001;-69
2021/10/18 08:13:29;;;;;;;42.23;38.63;;;11.50;83.60;;;;;;5027483;28;20553;-68
2021/10/18 08:15:56;;;;;;;39.93;36.43;;;11.40;83.80;;;;;;5026411;28;20456;-69
2021/10/18 08:18:22;;;;;;;41.47;37.60;;;11.40;86.50;;;;;;5028177;28;20451;-69
2021/10/18 08:20:49;;;;;;;41.10;37.40;;;11.60;84.90;;;;;;5025348;28;21023;-69
2021/10/18 08:23:16;;;;;;;41.93;38.13;;;11.60;83.50;;;;;;5025816;28;20464;-69
2021/10/18 08:25:43;;;;;;;43.00;38.97;;;11.60;83.40;;;;;;5024218;28;20464;-69
2021/10/18 08:28:11;;;;;;;43.53;39.00;;;11.50;83.00;;;;;;5026395;28;20468;-69
2021/10/18 08:30:40;;;;;;;45.23;41.20;;;11.50;83.00;;;;;;5026286;28;20486;-69
2021/10/18 08:33:07;;;;;;;42.23;38.60;;;11.50;84.10;;;;;;5024338;28;20563;-69
2021/10/18 08:35:34;;;;;;;41.63;37.93;;;11.50;85.80;;;;;;5027906;28;20945;-69
2021/10/18 08:38:32;;;;;;;42.23;38.43;;;11.60;84.80;;;;;;5029218;28;20841;-69
2021/10/18 08:41:05;;;;;;;41.67;37.77;;;11.60;87.10;;;;;;5021474;28;20487;-69
2021/10/18 08:46:27;;;;;;;42.97;39.30;;;11.70;85.40;;;;;;4990781;28;20487;-70
2021/10/18 08:48:55;;;;;;;42.30;38.47;;;11.80;83.60;;;;;;5027645;28;20476;-69
2021/10/18 08:51:23;;;;;;;40.97;37.10;;;11.70;83.70;;;;;;5025406;28;20484;-70
2021/10/18 08:53:50;;;;;;;44.67;40.50;;;11.70;83.30;;;;;;5026421;28;20459;-70
2021/10/18 08:56:17;;;;;;;41.90;38.30;;;11.60;83.70;;;;;;5020548;28;20921;-69
2021/10/18 08:58:45;;;;;;;43.80;40.07;;;11.60;83.20;;;;;;5025538;28;20460;-69
2021/10/18 09:01:12;;;;;;;41.93;38.17;;;11.60;82.50;;;;;;5023990;28;20507;-70
2021/10/18 09:03:40;;;;;;;45.80;41.90;;;11.50;82.90;;;;;;5024631;28;20500;-70
2021/10/18 09:06:13;;;;;;;42.83;39.20;;;11.60;82.90;;;;;;5025308;28;20532;-70
2021/10/18 09:08:42;;;;;;;40.27;36.83;;;11.70;82.90;;;;;;5026900;28;20452;-70
2021/10/18 09:11:11;;;;;;;44.57;40.67;;;11.80;82.50;;;;;;5023160;28;20486;-70
2021/10/18 09:13:43;;;;;;;43.03;39.23;;;11.90;83.10;;;;;;5027138;28;20492;-70
2021/10/18 09:16:11;;;;;;;44.50;40.90;;;11.80;83.50;;;;;;5022236;28;20468;-70
2021/10/18 09:18:41;;;;;;;43.23;39.47;;;11.80;83.80;;;;;;5027390;28;20468;-70
2021/10/18 09:21:08;;;;;;;44.40;40.57;;;11.90;82.80;;;;;;5026611;28;20488;-74
2021/10/18 09:23:37;;;;;;;43.80;39.90;;;11.90;82.10;;;;;;5024982;28;20451;-70
2021/10/18 09:26:07;;;;;;;42.40;38.70;;;12.00;82.10;;;;;;5019297;28;20941;-69
2021/10/18 09:28:35;;;;;;;44.30;40.40;;;12.00;81.80;;;;;;5026879;28;20624;-69
2021/10/18 09:31:02;;;;;;;42.13;38.47;;;12.00;81.90;;;;;;5023383;28;20887;-70
2021/10/18 09:33:33;;;;;;;44.27;40.10;;;12.10;81.90;;;;;;5024578;28;20841;-71
2021/10/18 09:36:04;;;;;;;43.83;40.10;;;12.10;81.40;;;;;;5022539;28;20534;-70
2021/10/18 09:38:31;;;;;;;42.97;39.37;;;12.20;81.80;;;;;;5025167;28;20973;-70
2021/10/18 09:41:00;;;;;;;42.80;39.00;;;12.30;81.70;;;;;;5025571;28;20969;-70
2021/10/18 09:43:34;;;;;;;44.77;40.90;;;12.40;80.90;;;;;;5020652;28;20460;-70
2021/10/18 09:46:08;;;;;;;42.37;38.73;;;12.60;80.30;;;;;;5021330;28;20452;-70
2021/10/18 10:51:28;;;;;;;43.80;39.90;;;14.70;71.40;;;;;;5025163;28;20992;-71
2021/10/18 10:53:59;;;;;;;43.07;39.67;;;14.50;71.80;;;;;;5025851;28;20981;-71
2021/10/18 10:56:32;;;;;;;43.53;40.03;;;14.50;71.50;;;;;;5025405;28;20463;-70
2021/10/18 10:59:13;;;;;;;43.90;40.40;;;14.20;72.60;;;;;;5021038;28;20562;-71
2021/10/18 11:01:59;;;;;;;66.70;49.57;;;14.20;74.30;;;;;;5026084;28;20518;-70
2021/10/18 11:04:46;;;;;;;52.37;47.03;;;14.30;74.70;;;;;;5022101;28;20949;-71
2021/10/18 11:07:16;;;;;;;44.90;41.00;;;14.40;74.40;;;;;;5028857;28;20570;-72
2021/10/18 11:09:45;;;;;;;43.10;39.33;;;14.40;74.30;;;;;;5031402;28;20534;-72
2021/10/18 11:12:21;;;;;;;43.70;40.13;;;14.40;74.20;;;;;;5029427;28;20562;-73
2021/10/18 11:14:55;;;;;;;42.57;38.77;;;14.40;73.80;;;;;;5028894;28;20987;-72
2021/10/18 11:17:22;;;;;;;42.70;39.13;;;14.30;73.80;;;;;;5028103;28;20594;-72
2021/10/18 11:19:53;;;;;;;41.80;38.43;;;14.10;73.50;;;;;;5030436;28;20459;-72
2021/10/18 11:22:28;;;;;;;42.30;38.83;;;14.00;72.90;;;;;;5028016;28;20500;-72
2021/10/18 11:24:56;;;;;;;44.13;40.57;;;14.10;73.50;;;;;;5029830;28;20546;-72
2021/10/18 11:27:29;;;;;;;43.83;40.27;;;13.90;73.40;;;;;;5028099;28;20491;-71
2021/10/18 11:30:02;;;;;;;43.87;40.10;;;13.70;74.20;;;;;;5030894;28;20956;-72
2021/10/18 11:32:31;;;;;;;43.07;39.57;;;13.50;75.10;;;;;;5027272;28;21009;-74
2021/10/18 11:35:13;;;;;;;42.00;38.50;;;13.50;75.70;;;;;;5022901;28;20460;-71
2021/10/18 11:37:56;;;;;;;40.47;37.03;;;13.60;75.60;;;;;;5028742;28;20456;-72
2021/10/18 11:40:26;;;;;;;42.60;39.20;;;13.80;75.40;;;;;;5027243;28;20884;-72
2021/10/18 11:42:54;;;;;;;42.00;38.60;;;13.90;74.90;;;;;;5026344;28;20502;-72
2021/10/18 11:45:24;;;;;;;43.57;40.33;;;14.00;73.10;;;;;;5028007;28;20470;-71
2021/10/18 11:47:52;;;;;;;41.87;38.47;;;13.90;73.40;;;;;;5028589;28;20566;-73
2021/10/18 11:50:24;;;;;;;43.10;39.43;;;13.80;74.10;;;;;;5028214;28;20586;-71
2021/10/18 11:52:57;;;;;;;42.23;38.83;;;13.80;74.40;;;;;;5029441;28;20522;-71
2021/10/18 11:55:27;;;;;;;40.80;37.50;;;13.80;74.60;;;;;;5027947;28;20448;-71
2021/10/18 11:57:56;;;;;;;41.90;38.67;;;13.80;74.70;;;;;;5028744;28;20467;-70
2021/10/18 12:00:30;;;;;;;42.00;38.60;;;14.10;73.40;;;;;;5027053;28;20467;-71
2021/10/18 12:03:02;;;;;;;41.77;38.57;;;14.10;72.90;;;;;;5027569;28;20491;-70
2021/10/18 12:05:39;;;;;;;41.70;38.50;;;14.10;73.20;;;;;;5027861;28;20506;-70
2021/10/18 12:08:07;;;;;;;40.60;37.40;;;14.10;73.50;;;;;;5028177;28;20478;-74
2021/10/18 12:10:36;;;;;;;43.40;39.77;;;14.00;73.30;;;;;;5026635;28;20500;-70
2021/10/18 12:13:14;;;;;;;42.27;39.10;;;14.00;74.50;;;;;;5023553;28;20470;-70
2021/10/18 12:16:07;;;;;;;43.73;39.80;;;14.20;73.40;;;;;;5026839;28;20542;-69
2021/10/18 12:18:39;;;;;;;45.10;41.30;;;14.40;73.20;;;;;;5029081;28;20509;-70
2021/10/18 12:21:08;;;;;;;43.03;39.47;;;14.40;73.50;;;;;;5025922;28;20486;-70
2021/10/18 12:23:48;;;;;;;43.00;39.70;;;14.50;73.30;;;;;;5027389;28;20551;-70
2021/10/18 12:26:18;;;;;;;41.07;37.90;;;14.70;71.80;;;;;;5024034;28;20470;-70
2021/10/18 12:28:48;;;;;;;40.30;37.10;;;14.70;72.70;;;;;;5023885;28;20490;-70
2021/10/18 12:31:31;;;;;;;41.40;38.30;;;14.70;72.10;;;;;;5023897;28;20503;-70
2021/10/18 12:34:14;;;;;;;40.90;37.63;;;14.70;72.80;;;;;;5025958;28;20463;-72
2021/10/18 12:36:53;;;;;;;42.50;39.00;;;14.90;71.90;;;;;;5025240;28;20945;-71
2021/10/18 12:39:37;;;;;;;40.53;37.47;;;15.00;70.80;;;;;;5026889;28;20458;-71
2021/10/18 12:42:04;;;;;;;42.47;38.97;;;15.00;71.80;;;;;;5025575;28;20579;-71
2021/10/18 12:44:33;;;;;;;41.90;38.53;;;15.10;71.30;;;;;;5026366;28;20833;-71
2021/10/18 12:47:01;;;;;;;42.43;39.03;;;15.10;70.90;;;;;;5026857;28;20481;-71
2021/10/18 12:49:29;;;;;;;42.40;39.00;;;15.10;71.10;;;;;;5028260;28;20953;-71
2021/10/18 12:51:56;;;;;;;43.50;40.03;;;15.20;70.20;;;;;;5026533;28;20490;-70
2021/10/18 12:54:25;;;;;;;40.43;37.07;;;15.00;70.60;;;;;;5026914;28;20458;-70
2021/10/18 12:57:06;;;;;;;41.07;37.87;;;15.20;70.50;;;;;;5023525;28;20464;-71
2021/10/18 12:59:35;;;;;;;41.30;38.30;;;15.30;70.20;;;;;;5023917;28;20456;-72
2021/10/18 13:02:23;;;;;;;40.37;37.07;;;15.30;70.30;;;;;;5027343;28;20484;-70
2021/10/18 13:05:19;;;;;;;41.30;38.17;;;15.50;70.30;;;;;;5026935;28;20451;-72
2021/10/18 13:08:00;;;;;;;41.60;38.20;;;15.50;70.80;;;;;;4994032;28;20899;-72
2021/10/18 13:10:30;;;;;;;39.43;36.43;;;15.70;69.00;;;;;;5027312;28;20462;-74
2021/10/18 13:12:57;;;;;;;41.83;38.20;;;15.70;68.70;;;;;;5027384;28;20460;-71
2021/10/18 13:15:24;;;;;;;40.40;37.07;;;15.80;68.30;;;;;;5026199;28;20822;-71
2021/10/18 13:17:53;;;;;;;38.97;35.87;;;15.70;68.20;;;;;;5026953;28;20957;-70
2021/10/18 13:20:23;;;;;;;41.37;37.80;;;15.70;68.30;;;;;;5026276;28;20968;-70
2021/10/18 13:22:52;;;;;;;39.90;36.50;;;15.70;68.60;;;;;;5023663;28;20495;-70
2021/10/18 13:25:20;;;;;;;38.40;35.40;;;15.70;69.20;;;;;;5023135;28;20452;-71
2021/10/18 13:27:47;;;;;;;37.83;35.00;;;15.80;68.90;;;;;;5027197;28;20571;-71
2021/10/18 13:30:15;;;;;;;39.87;36.87;;;15.80;68.90;;;;;;5026326;28;20472;-70
2021/10/18 13:32:43;;;;;;;37.80;34.80;;;15.90;68.50;;;;;;5026155;28;20499;-70
2021/10/18 13:35:12;;;;;;;39.43;36.27;;;16.10;67.40;;;;;;5026814;28;20682;-71
2021/10/18 13:37:39;;;;;;;41.67;38.33;;;16.10;67.70;;;;;;5027354;28;20467;-70
2021/10/18 13:40:08;;;;;;;41.73;38.73;;;15.90;68.20;;;;;;5027701;28;20547;-71
2021/10/18 13:42:36;;;;;;;38.27;35.30;;;15.90;68.50;;;;;;5026052;28;20550;-71
2021/10/18 13:45:03;;;;;;;38.93;36.03;;;16.00;68.30;;;;;;5026772;28;20460;-70
2021/10/18 13:47:30;;;;;;;41.47;37.90;;;16.00;68.70;;;;;;5026579;28;20472;-70